TimePST,TemperatureF,Dew PointF,Humidity,Sea Level PressureIn,VisibilityMPH,Wind Direction,Wind SpeedMPH,Gust SpeedMPH,PrecipitationIn,Events,Conditions,WindDirDegrees,DateUTC
12:53 AM,43.0,37.9,82,29.94,10.0,Calm,Calm,-,0.01,,Clear,0,2013-02-09 08:53:00
1:53 AM,41.0,37.0,86,29.95,10.0,North,3.5,-,N/A,,Clear,360,2013-02-09 09:53:00
2:53 AM,41.0,37.9,89,29.96,10.0,Calm,Calm,-,N/A,,Clear,0,2013-02-09 10:53:00
3:53 AM,39.9,37.0,89,29.95,10.0,Calm,Calm,-,N/A,,Clear,0,2013-02-09 11:53:00
4:53 AM,39.9,36.0,86,29.96,10.0,NNW,3.5,-,N/A,,Clear,340,2013-02-09 12:53:00
5:53 AM,39.0,36.0,89,29.98,10.0,Calm,Calm,-,N/A,,Clear,0,2013-02-09 13:53:00
6:53 AM,39.0,36.0,89,29.99,10.0,Calm,Calm,-,N/A,,Partly Cloudy,0,2013-02-09 14:53:00
7:53 AM,43.0,37.0,80,30.02,10.0,Calm,Calm,-,N/A,,Partly Cloudy,0,2013-02-09 15:53:00
8:53 AM,48.9,39.0,69,30.05,10.0,Calm,Calm,-,0.01,,Partly Cloudy,0,2013-02-09 16:53:00
9:53 AM,52.0,37.9,59,30.06,10.0,SE,4.6,-,N/A,,Partly Cloudy,130,2013-02-09 17:53:00
10:53 AM,54.0,37.0,53,30.06,10.0,South,3.5,-,N/A,,Partly Cloudy,170,2013-02-09 18:53:00
11:53 AM,55.9,39.0,53,30.06,10.0,Variable,6.9,-,N/A,,Partly Cloudy,0,2013-02-09 19:53:00
12:53 PM,55.9,35.1,45,30.05,10.0,SSW,9.2,-,N/A,,Partly Cloudy,210,2013-02-09 20:53:00
1:53 PM,55.9,35.1,45,30.04,10.0,WSW,4.6,-,N/A,,Partly Cloudy,250,2013-02-09 21:53:00
2:53 PM,55.0,37.9,53,30.05,10.0,WSW,8.1,-,N/A,,Scattered Clouds,240,2013-02-09 22:53:00
3:53 PM,55.0,37.9,53,30.04,10.0,SSW,6.9,-,N/A,,Partly Cloudy,210,2013-02-09 23:53:00
4:53 PM,54.0,37.9,55,30.04,10.0,WSW,5.8,-,N/A,,Partly Cloudy,250,2013-02-10 00:53:00
5:53 PM,53.1,37.0,55,30.05,10.0,SW,5.8,-,N/A,,Scattered Clouds,230,2013-02-10 01:53:00
6:53 PM,51.1,39.0,63,30.06,10.0,Calm,Calm,-,N/A,,Partly Cloudy,0,2013-02-10 02:53:00
7:53 PM,50.0,39.9,68,30.08,10.0,SE,5.8,-,N/A,,Scattered Clouds,130,2013-02-10 03:53:00
8:53 PM,48.9,39.9,71,30.09,10.0,ESE,3.5,-,N/A,,Partly Cloudy,120,2013-02-10 04:53:00
9:53 PM,48.0,39.9,74,30.10,10.0,ESE,4.6,-,N/A,,Scattered Clouds,120,2013-02-10 05:53:00
10:53 PM,48.0,39.0,71,30.10,10.0,East,4.6,-,N/A,,Scattered Clouds,100,2013-02-10 06:53:00
11:53 PM,48.9,39.0,69,30.12,10.0,ESE,6.9,-,0.00,,Overcast,120,2013-02-10 07:53:00